createdAt,value
2023-02-08T00:01:10.954Z,65.32
2023-02-08T00:04:53.766Z,64.03
2023-02-08T00:08:43.413Z,62.74
2023-02-08T00:13:02.022Z,60.14
2023-02-08T00:16:51.133Z,58.71
2023-02-08T00:20:40.478Z,59.49
2023-02-08T00:24:29.747Z,61.59
2023-02-08T00:28:18.779Z,71.20
2023-02-08T00:32:07.904Z,71.01
2023-02-08T00:35:57.313Z,68.22
2023-02-08T00:39:46.463Z,65.71
2023-02-08T00:43:35.715Z,65.42
2023-02-08T00:47:25.018Z,63.77
2023-02-08T00:51:12.824Z,63.45
2023-02-08T00:55:02.091Z,62.59
2023-02-08T00:58:52.304Z,61.47
2023-02-08T01:02:43.560Z,61.56
2023-02-08T01:07:20.662Z,59.25
2023-02-08T01:11:08.615Z,58.66
2023-02-08T01:14:56.160Z,58.62
2023-02-08T01:18:43.782Z,59.76
2023-02-08T01:22:34.182Z,67.02
2023-02-08T01:26:21.992Z,71.72
2023-02-08T01:30:10.379Z,68.77
2023-02-08T01:33:58.719Z,64.58
2023-02-08T01:57:10.717Z,63.65
2023-02-08T02:00:59.738Z,69.74
2023-02-08T02:04:48.909Z,66.78
2023-02-08T02:08:39.843Z,65.27
2023-02-08T02:12:30.163Z,64.22
2023-02-08T02:16:20.078Z,63.52
2023-02-08T02:20:09.438Z,62.95
2023-02-08T02:24:08.555Z,61.92
2023-02-08T02:39:57.677Z,58.17
2023-02-08T02:44:03.470Z,57.78
2023-02-08T02:47:59.536Z,58.49
2023-02-08T02:59:31.531Z,68.00
2023-02-08T03:03:20.398Z,66.07
2023-02-08T03:07:12.278Z,64.97
2023-02-08T03:11:16.383Z,63.94
2023-02-08T03:23:03.603Z,59.97
2023-02-08T03:27:00.321Z,58.34
2023-02-08T03:30:48.305Z,59.17
2023-02-08T03:34:37.442Z,59.91
2023-02-08T03:50:39.582Z,66.62
2023-02-08T03:54:28.758Z,66.11
2023-02-08T03:58:17.672Z,65.23
2023-02-08T04:02:01.425Z,63.99
2023-02-08T04:21:47.815Z,58.77
2023-02-08T04:25:35.798Z,57.77
2023-02-08T04:33:07.380Z,60.27
2023-02-08T04:44:59.825Z,68.59
2023-02-08T04:48:48.880Z,66.21
2023-02-08T04:52:37.910Z,64.17
2023-02-08T04:56:27.058Z,62.91
2023-02-08T05:00:16.019Z,61.59
2023-02-08T05:04:05.113Z,60.58
2023-02-08T05:07:54.122Z,60.65
2023-02-08T05:11:46.696Z,59.62
2023-02-08T05:15:35.722Z,55.34
2023-02-08T05:19:25.028Z,56.41
2023-02-08T05:23:14.095Z,57.11
2023-02-08T05:54:01.736Z,58.96
2023-02-08T05:57:51.111Z,57.11
2023-02-08T06:01:40.165Z,59.08
2023-02-08T06:05:29.530Z,64.32
2023-02-08T06:09:07.441Z,68.25
2023-02-08T06:12:16.449Z,67.64
2023-02-08T06:15:51.161Z,66.42
2023-02-08T06:19:22.854Z,64.76
2023-02-08T06:22:40.606Z,63.84
2023-02-08T06:26:18.995Z,63.52
2023-02-08T06:29:48.725Z,62.68
2023-02-08T06:33:27.331Z,63.49
2023-02-08T06:36:47.436Z,63.43
2023-02-08T06:40:36.521Z,62.50
2023-02-08T06:44:08.956Z,61.65
2023-02-08T06:47:17.891Z,60.93
2023-02-08T06:50:46.587Z,60.40
2023-02-08T06:54:25.329Z,59.88
2023-02-08T06:58:14.617Z,59.72
2023-02-08T07:02:02.229Z,56.66
2023-02-08T07:05:14.401Z,56.08
2023-02-08T07:08:43.653Z,59.72
2023-02-08T07:11:25.070Z,65.46
2023-02-08T07:14:14.152Z,68.74
2023-02-08T07:16:48.678Z,67.68
2023-02-08T07:19:47.065Z,65.20
2023-02-08T07:23:07.742Z,63.93
2023-02-08T07:26:45.357Z,62.87
2023-02-08T07:30:06.677Z,62.64
2023-02-08T07:33:18.622Z,62.29
2023-02-08T07:36:50.173Z,62.28
2023-02-08T07:40:33.453Z,61.85
2023-02-08T07:43:27.186Z,61.37
2023-02-08T07:47:00.565Z,60.57
2023-02-08T07:50:08.063Z,57.55
2023-02-08T07:53:11.680Z,57.28
2023-02-08T07:56:10.500Z,59.63
2023-02-08T07:59:17.754Z,65.03
2023-02-08T08:02:51.961Z,66.65
2023-02-08T08:06:28.331Z,65.66
2023-02-08T08:10:11.011Z,65.84
2023-02-08T08:13:19.775Z,64.92
2023-02-08T08:17:08.840Z,64.04
2023-02-08T08:27:46.609Z,62.83
2023-02-08T08:38:54.971Z,60.88
2023-02-08T08:50:39.405Z,62.28
2023-02-08T08:54:28.521Z,58.00
2023-02-08T08:58:07.569Z,58.62
2023-02-08T09:01:50.643Z,64.12
2023-02-08T09:04:49.421Z,63.33
2023-02-08T09:08:28.332Z,60.60
2023-02-08T09:30:05.522Z,59.45
2023-02-08T09:33:43.512Z,58.95
2023-02-08T09:37:17.550Z,62.08
2023-02-08T09:40:48.148Z,63.76
2023-02-08T09:44:38.076Z,58.84
2023-02-08T09:59:41.555Z,61.24
2023-02-08T10:03:30.700Z,57.29
2023-02-08T10:06:55.221Z,58.35
2023-02-08T10:10:44.698Z,60.81
2023-02-08T10:14:24.350Z,60.24
2023-02-08T10:29:42.976Z,57.07
2023-02-08T10:33:31.834Z,58.38
2023-02-08T10:37:16.499Z,57.03
2023-02-08T10:40:16.729Z,59.54
2023-02-08T10:43:35.470Z,59.15
2023-02-08T10:47:00.784Z,55.72
2023-02-08T10:50:52.313Z,59.12
2023-02-08T11:21:04.460Z,50.64
2023-02-08T11:24:48.555Z,49.58
2023-02-08T11:28:12.852Z,46.43
2023-02-08T11:31:41.948Z,46.39
2023-02-08T11:35:37.184Z,44.70
2023-02-08T11:39:16.017Z,45.40
2023-02-08T11:42:50.768Z,46.01
2023-02-08T11:46:32.762Z,42.65
2023-02-08T11:50:13.127Z,43.21
2023-02-08T12:16:10.906Z,33.69
2023-02-08T12:20:15.110Z,35.78
2023-02-08T12:24:08.989Z,35.08
2023-02-08T12:36:05.396Z,31.01
2023-02-08T12:40:00.709Z,28.47
2023-02-08T12:43:54.492Z,30.35
2023-02-08T12:48:07.679Z,28.81
2023-02-08T12:51:41.617Z,32.73
2023-02-08T12:55:29.530Z,32.99
2023-02-08T12:59:15.108Z,31.61
2023-02-08T13:19:05.988Z,28.87
2023-02-08T13:22:46.286Z,29.01
2023-02-08T13:25:56.870Z,30.47
2023-02-08T13:28:41.485Z,30.15
2023-02-08T13:31:27.092Z,30.73
2023-02-08T13:34:57.955Z,29.93
2023-02-08T13:38:39.443Z,29.08
2023-02-08T13:42:31.359Z,30.32
2023-02-08T13:46:12.181Z,29.31
2023-02-08T13:49:37.200Z,31.15
2023-02-08T13:53:35.390Z,30.71
2023-02-08T14:01:35.409Z,32.82
2023-02-08T14:05:09.991Z,34.67
2023-02-08T14:08:29.057Z,35.45
2023-02-08T14:11:55.691Z,37.32
2023-02-08T14:15:56.885Z,38.45
2023-02-08T14:19:56.668Z,39.44
2023-02-08T14:34:35.045Z,44.24
2023-02-08T14:38:29.712Z,44.37
2023-02-08T14:42:20.112Z,44.13
2023-02-08T14:45:35.519Z,45.32
2023-02-08T14:49:24.572Z,45.75
2023-02-08T14:53:06.101Z,45.66
2023-02-08T15:08:53.387Z,49.56
2023-02-08T15:12:28.001Z,48.61
2023-02-08T15:16:20.129Z,48.73
2023-02-08T15:20:12.190Z,48.73
2023-02-08T15:23:56.232Z,48.84
2023-02-08T15:27:49.591Z,48.90
2023-02-08T15:31:39.002Z,49.59
2023-02-08T15:35:38.455Z,50.20
2023-02-08T15:53:44.817Z,53.74
2023-02-08T15:57:19.691Z,52.61
2023-02-08T16:01:17.737Z,52.96
2023-02-08T16:04:55.982Z,53.28
2023-02-08T16:08:45.831Z,53.26
2023-02-08T16:12:16.587Z,53.68
2023-02-08T16:16:18.422Z,53.33
2023-02-08T16:31:50.977Z,59.36
2023-02-08T16:35:20.342Z,58.63
2023-02-08T16:38:57.055Z,58.58
2023-02-08T16:43:01.331Z,58.73
2023-02-08T16:46:48.390Z,59.69
2023-02-08T17:16:37.288Z,59.46
2023-02-08T17:20:24.977Z,58.58
2023-02-08T17:24:12.579Z,59.62
2023-02-08T17:36:16.289Z,64.00
2023-02-08T17:40:02.942Z,62.99
2023-02-08T17:43:50.749Z,64.31
2023-02-08T17:47:38.369Z,64.67
2023-02-08T17:51:27.132Z,65.13
2023-02-08T17:55:18.000Z,65.53
2023-02-08T18:10:50.813Z,68.60
2023-02-08T18:14:40.005Z,69.82
2023-02-08T18:18:22.260Z,69.95
2023-02-08T18:22:14.795Z,70.45
2023-02-08T18:26:03.919Z,70.71
2023-02-08T18:29:51.471Z,71.11
2023-02-08T18:33:23.238Z,71.36
2023-02-08T18:37:11.040Z,70.39
2023-02-08T18:41:00.564Z,70.81
2023-02-08T18:44:50.690Z,71.60
2023-02-08T18:48:33.155Z,71.71
2023-02-08T18:52:22.473Z,71.99
2023-02-08T18:55:53.646Z,69.78
2023-02-08T18:59:25.342Z,71.01
2023-02-08T19:02:58.664Z,71.66
2023-02-08T19:06:44.025Z,72.32
2023-02-08T19:09:49.705Z,72.49
2023-02-08T19:13:38.369Z,72.67
2023-02-08T19:17:28.016Z,72.86
2023-02-08T19:21:10.292Z,71.16
2023-02-08T19:28:49.495Z,72.18
2023-02-08T19:40:17.796Z,73.77
2023-02-08T19:44:07.353Z,74.17
2023-02-08T19:47:55.951Z,74.35
2023-02-08T19:51:45.094Z,74.48
2023-02-08T19:55:34.341Z,74.86
2023-02-08T19:59:16.681Z,75.06
2023-02-08T20:03:16.346Z,75.14
2023-02-08T20:06:56.199Z,75.31
2023-02-08T20:11:21.339Z,75.34
2023-02-08T20:15:10.386Z,75.11
2023-02-08T20:18:50.384Z,75.11
2023-02-08T20:22:18.303Z,75.25
2023-02-08T20:25:58.632Z,75.25
2023-02-08T20:29:40.862Z,75.20
2023-02-08T20:33:32.273Z,75.22
2023-02-08T20:37:08.374Z,74.91
2023-02-08T20:44:06.478Z,74.80
2023-02-08T20:47:29.950Z,74.81
2023-02-08T20:51:03.850Z,74.96
2023-02-08T20:54:15.440Z,74.99
2023-02-08T20:57:33.974Z,74.88
2023-02-08T21:01:02.930Z,75.01
2023-02-08T21:04:52.150Z,74.95
2023-02-08T21:08:27.577Z,74.85
2023-02-08T21:12:10.395Z,74.75
2023-02-08T21:42:22.642Z,75.83
2023-02-08T21:46:11.810Z,75.44
2023-02-08T21:49:59.701Z,75.32
2023-02-08T21:53:47.246Z,75.72
2023-02-08T21:57:26.184Z,75.80
2023-02-08T22:01:15.347Z,75.94
2023-02-08T22:04:57.622Z,76.18
2023-02-08T22:08:46.651Z,76.60
2023-02-08T22:12:37.118Z,76.53
2023-02-08T22:16:26.123Z,76.56
2023-02-08T22:39:17.017Z,78.44
2023-02-08T22:43:05.952Z,74.86
2023-02-08T22:46:57.832Z,69.96
2023-02-08T22:50:47.191Z,65.55
2023-02-08T22:54:29.192Z,66.04
2023-02-08T22:58:19.954Z,72.25
2023-02-08T23:02:12.993Z,69.71
2023-02-08T23:05:56.306Z,65.96
2023-02-08T23:09:45.714Z,61.93
2023-02-08T23:13:35.136Z,57.76
2023-02-08T23:17:04.949Z,56.13
2023-02-08T23:20:54.952Z,57.58
2023-02-08T23:24:44.890Z,60.09
2023-02-08T23:28:33.799Z,68.78
2023-02-08T23:32:23.121Z,66.36
2023-02-08T23:36:12.332Z,61.61
2023-02-08T23:40:30.748Z,57.71
2023-02-08T23:44:19.884Z,57.73
2023-02-08T23:48:08.875Z,61.00
2023-02-08T23:51:57.839Z,68.20
2023-02-08T23:55:46.822Z,70.57
2023-02-08T23:59:35.857Z,65.88
